Time;durP1;ratioP1;P1;durP2;ratioP2;P2;SDS_P1;SDS_P2;PMS_P1;PMS_P2;Temp;Humidity;BMP_temperature;BMP_pressure;BME280_temperature;BME280_humidity;BME280_pressure;Samples;Min_cycle;Max_cycle;Signal;HPM_P1;HPM_P2
2022/10/07 00:00:12;;;;;;;6.20;4.63;;;20.30;58.60;;;;;;5046360;28;20305;-46
2022/10/07 00:02:39;;;;;;;5.67;4.60;;;20.30;58.70;;;;;;5042378;28;20287;-48
2022/10/07 00:05:05;;;;;;;8.10;4.80;;;20.30;58.70;;;;;;5045272;28;20447;-47
2022/10/07 00:07:31;;;;;;;5.70;4.23;;;20.30;58.70;;;;;;5035319;28;20465;-45
2022/10/07 00:09:56;;;;;;;4.90;4.50;;;20.30;58.70;;;;;;5044654;28;20839;-48
2022/10/07 00:12:22;;;;;;;7.67;5.40;;;20.30;58.60;;;;;;5040109;28;20242;-46
2022/10/07 00:14:47;;;;;;;9.03;5.33;;;20.40;58.60;;;;;;5044460;28;20193;-47
2022/10/07 00:17:13;;;;;;;9.47;6.07;;;20.30;58.60;;;;;;5041818;28;20200;-46
2022/10/07 00:19:39;;;;;;;11.30;5.70;;;20.30;58.60;;;;;;5042269;28;20204;-49
2022/10/07 00:22:04;;;;;;;7.50;5.10;;;20.30;58.70;;;;;;5042521;28;20196;-48
2022/10/07 00:24:30;;;;;;;9.50;5.50;;;20.30;58.70;;;;;;5038909;28;20195;-46
2022/10/07 00:26:55;;;;;;;10.00;5.70;;;20.30;58.80;;;;;;5045002;28;20197;-45
2022/10/07 00:29:21;;;;;;;7.63;5.70;;;20.30;58.80;;;;;;5038528;28;20245;-46
2022/10/07 00:31:47;;;;;;;9.70;4.93;;;20.30;58.80;;;;;;5048508;28;20243;-47
2022/10/07 00:34:12;;;;;;;11.80;6.67;;;20.30;58.70;;;;;;5047569;28;20245;-47
2022/10/07 00:36:38;;;;;;;9.27;5.67;;;20.40;58.70;;;;;;5048634;28;20195;-46
2022/10/07 00:39:06;;;;;;;8.37;4.90;;;20.30;58.60;;;;;;5042684;28;20197;-47
2022/10/07 00:41:38;;;;;;;7.37;5.00;;;20.30;58.70;;;;;;5044418;28;20664;-46
2022/10/07 00:44:32;;;;;;;9.07;5.57;;;20.30;58.90;;;;;;5046481;28;20454;-48
2022/10/07 00:47:02;;;;;;;5.00;4.50;;;20.30;58.80;;;;;;5041996;28;20478;-47
2022/10/07 00:49:29;;;;;;;12.53;5.20;;;20.30;59.50;;;;;;5047882;28;20537;-46
2022/10/07 00:51:56;;;;;;;5.53;4.93;;;20.30;59.00;;;;;;5042799;28;20481;-46
2022/10/07 00:54:22;;;;;;;5.80;4.83;;;20.30;58.90;;;;;;5044230;28;20444;-46
2022/10/07 00:56:50;;;;;;;6.00;4.50;;;20.30;58.90;;;;;;5045807;28;20450;-50
2022/10/07 00:59:17;;;;;;;4.63;4.03;;;20.30;58.90;;;;;;5043186;28;20518;-46
2022/10/07 01:01:43;;;;;;;4.87;4.10;;;20.20;58.70;;;;;;5044085;28;20449;-48
2022/10/07 01:04:11;;;;;;;7.40;4.80;;;20.20;58.80;;;;;;5044431;28;20432;-45
2022/10/07 01:06:38;;;;;;;6.60;4.17;;;20.20;58.90;;;;;;5042834;28;20790;-46
2022/10/07 01:09:05;;;;;;;6.70;4.10;;;20.20;59.00;;;;;;5044844;28;20470;-51
2022/10/07 01:12:04;;;;;;;7.03;4.63;;;20.20;59.00;;;;;;5045198;28;20439;-47
2022/10/07 01:14:50;;;;;;;6.17;4.13;;;20.30;58.80;;;;;;5039661;28;20534;-49
2022/10/07 01:17:31;;;;;;;5.97;4.27;;;20.20;58.90;;;;;;5040765;28;20439;-48
2022/10/07 01:20:16;;;;;;;5.17;3.73;;;20.20;58.90;;;;;;5039753;28;20463;-48
2022/10/07 01:23:02;;;;;;;7.00;4.33;;;20.10;59.20;;;;;;5041966;28;20455;-49
2022/10/07 01:25:27;;;;;;;5.27;4.13;;;20.00;59.40;;;;;;5040550;28;20456;-50
2022/10/07 01:28:02;;;;;;;7.20;4.67;;;20.00;59.50;;;;;;5036139;28;20492;-49
2022/10/07 01:30:35;;;;;;;6.33;3.90;;;20.00;59.50;;;;;;5042831;28;22014;-50
2022/10/07 01:33:05;;;;;;;5.53;4.67;;;20.00;59.90;;;;;;5042735;28;20443;-48
2022/10/07 01:35:36;;;;;;;5.60;4.43;;;20.00;59.40;;;;;;5037922;28;20842;-50
2022/10/07 01:38:06;;;;;;;6.30;4.30;;;20.00;59.50;;;;;;5038515;28;20443;-47
2022/10/07 01:40:39;;;;;;;6.23;4.63;;;20.10;59.80;;;;;;5042184;28;20492;-50
2022/10/07 01:43:05;;;;;;;5.03;4.60;;;20.10;59.60;;;;;;5044932;28;20443;-47
2022/10/07 01:45:34;;;;;;;5.33;4.50;;;20.20;59.40;;;;;;5043310;28;20939;-50
2022/10/07 01:48:00;;;;;;;6.47;4.50;;;20.20;59.20;;;;;;5036963;28;21019;-47
2022/10/07 01:50:28;;;;;;;6.53;4.20;;;20.10;59.10;;;;;;5047492;28;20483;-50
2022/10/07 01:53:14;;;;;;;4.60;4.20;;;20.10;59.30;;;;;;5045357;28;20439;-49
2022/10/07 01:55:57;;;;;;;7.53;4.87;;;20.10;59.20;;;;;;5023281;28;20512;-50
2022/10/07 01:58:58;;;;;;;5.03;4.53;;;20.10;59.40;;;;;;5038666;28;20513;-46
2022/10/07 02:02:03;;;;;;;5.50;4.60;;;20.10;59.30;;;;;;5044021;28;20462;-46
2022/10/07 02:05:01;;;;;;;6.00;4.40;;;20.10;59.50;;;;;;5042147;28;20447;-47
2022/10/07 02:07:39;;;;;;;6.50;4.50;;;20.10;59.20;;;;;;5041036;28;20444;-47
2022/10/07 02:10:05;;;;;;;8.97;4.77;;;20.00;59.20;;;;;;5030235;28;20484;-46
2022/10/07 02:12:34;;;;;;;5.13;4.50;;;20.00;59.10;;;;;;5041844;28;20559;-46
2022/10/07 02:15:12;;;;;;;4.87;4.47;;;20.00;59.20;;;;;;5041020;28;20192;-46
2022/10/07 02:17:43;;;;;;;5.10;4.23;;;20.00;59.10;;;;;;5047757;28;20443;-47
2022/10/07 02:20:11;;;;;;;6.63;4.70;;;19.90;58.80;;;;;;5034731;28;20478;-46
2022/10/07 02:22:39;;;;;;;7.93;4.73;;;19.90;58.60;;;;;;5034373;28;20440;-47
2022/10/07 02:25:06;;;;;;;7.20;4.60;;;19.90;58.60;;;;;;5041452;28;20824;-47
2022/10/07 02:27:36;;;;;;;7.10;4.77;;;20.00;58.50;;;;;;5040634;28;20459;-47
2022/10/07 02:30:08;;;;;;;5.33;4.27;;;20.00;58.50;;;;;;5042809;28;20504;-46
2022/10/07 02:32:35;;;;;;;5.70;4.70;;;20.00;58.60;;;;;;5046655;28;21232;-54
2022/10/07 02:35:07;;;;;;;8.53;4.67;;;20.00;58.50;;;;;;5049236;28;20489;-46
2022/10/07 02:37:36;;;;;;;8.07;4.40;;;20.00;58.60;;;;;;5052333;28;20478;-45
2022/10/07 02:40:03;;;;;;;5.87;4.10;;;20.10;58.70;;;;;;5049287;28;20447;-46
2022/10/07 02:42:43;;;;;;;7.80;5.47;;;20.10;58.70;;;;;;5049262;28;20431;-49
2022/10/07 02:45:27;;;;;;;6.20;4.60;;;20.00;58.70;;;;;;5049644;28;20500;-46
2022/10/07 02:48:00;;;;;;;5.00;4.50;;;20.00;58.80;;;;;;5043878;28;20501;-46
2022/10/07 02:50:33;;;;;;;4.90;4.17;;;19.90;59.00;;;;;;5049342;28;20483;-47
2022/10/07 02:53:01;;;;;;;6.07;4.43;;;19.80;59.10;;;;;;5045612;28;20967;-49
2022/10/07 02:55:28;;;;;;;7.50;5.00;;;19.80;59.40;;;;;;5042664;28;20427;-49
2022/10/07 02:58:00;;;;;;;6.80;4.80;;;19.70;59.30;;;;;;5050570;28;20439;-51
2022/10/07 03:00:30;;;;;;;9.07;5.27;;;19.70;59.60;;;;;;5045277;28;20443;-50
2022/10/07 03:02:59;;;;;;;8.73;4.77;;;19.70;59.80;;;;;;5047233;28;20450;-48
2022/10/07 03:05:25;;;;;;;7.30;5.23;;;19.60;59.90;;;;;;5048479;28;20446;-46
2022/10/07 03:07:57;;;;;;;10.30;5.27;;;19.60;60.10;;;;;;5042969;28;20844;-49
2022/10/07 03:10:25;;;;;;;5.73;4.57;;;19.60;60.10;;;;;;5041605;28;20221;-49
2022/10/07 03:12:51;;;;;;;5.30;4.60;;;19.60;60.20;;;;;;5047929;28;20449;-47
2022/10/07 03:15:17;;;;;;;6.27;4.70;;;19.40;60.20;;;;;;5047029;28;20883;-46
2022/10/07 03:17:42;;;;;;;6.10;4.67;;;19.40;60.70;;;;;;5046783;28;20192;-49
2022/10/07 03:20:10;;;;;;;4.77;4.37;;;19.40;60.80;;;;;;5040641;28;20279;-50
2022/10/07 03:22:36;;;;;;;7.13;4.40;;;19.40;60.90;;;;;;5048068;28;20263;-48
2022/10/07 03:25:02;;;;;;;9.77;4.73;;;19.40;60.90;;;;;;5045733;28;20466;-48
2022/10/07 03:27:27;;;;;;;6.33;4.67;;;19.40;60.90;;;;;;5050152;28;20575;-46
2022/10/07 03:29:54;;;;;;;8.57;4.50;;;19.40;60.90;;;;;;5051003;28;20247;-46
2022/10/07 03:32:20;;;;;;;5.40;4.13;;;19.30;61.00;;;;;;5049370;28;20455;-48
2022/10/07 03:34:45;;;;;;;7.30;4.20;;;19.30;61.00;;;;;;5040062;28;20931;-50
2022/10/07 03:37:11;;;;;;;9.30;4.77;;;19.30;61.00;;;;;;5047187;28;20698;-46
2022/10/07 03:39:37;;;;;;;6.17;5.20;;;19.30;60.90;;;;;;5043785;28;20219;-46
2022/10/07 03:42:03;;;;;;;8.20;5.50;;;19.40;61.10;;;;;;5045189;28;20204;-47
2022/10/07 03:44:28;;;;;;;7.10;4.60;;;19.40;61.10;;;;;;5045360;28;20367;-47
2022/10/07 03:46:54;;;;;;;7.80;4.80;;;19.30;61.00;;;;;;5044638;28;20553;-48
2022/10/07 03:49:20;;;;;;;7.80;4.67;;;19.40;61.00;;;;;;5047967;28;20675;-47
2022/10/07 03:51:46;;;;;;;9.03;4.43;;;19.40;60.90;;;;;;5047677;28;20201;-46
2022/10/07 03:54:12;;;;;;;5.53;4.43;;;19.40;61.00;;;;;;5045312;28;20684;-49
2022/10/07 03:56:37;;;;;;;6.00;4.63;;;19.30;60.90;;;;;;5044646;28;20466;-48
2022/10/07 03:59:03;;;;;;;10.00;5.17;;;19.30;61.10;;;;;;5048517;28;20656;-49
2022/10/07 04:01:30;;;;;;;7.23;5.20;;;19.30;61.30;;;;;;5040149;28;20323;-46
2022/10/07 04:03:58;;;;;;;6.50;4.40;;;19.30;61.40;;;;;;5046923;28;20203;-49
2022/10/07 04:06:24;;;;;;;7.00;5.20;;;19.20;61.30;;;;;;5043060;28;20496;-47
2022/10/07 04:08:54;;;;;;;4.83;4.23;;;19.20;61.30;;;;;;5047877;28;20484;-47
2022/10/07 04:11:20;;;;;;;5.70;3.90;;;19.20;62.20;;;;;;5046679;28;20266;-49
2022/10/07 04:13:46;;;;;;;10.40;5.33;;;19.30;61.50;;;;;;5039968;28;20444;-45
2022/10/07 04:16:13;;;;;;;8.43;4.03;;;19.30;61.50;;;;;;5045968;28;20455;-46
2022/10/07 04:18:40;;;;;;;5.17;4.67;;;19.40;61.60;;;;;;5046633;28;20450;-47
2022/10/07 04:21:06;;;;;;;10.83;4.53;;;19.40;61.40;;;;;;5047595;28;20450;-46
2022/10/07 04:23:33;;;;;;;5.80;4.13;;;19.40;61.50;;;;;;5048750;28;20458;-46
2022/10/07 04:25:59;;;;;;;12.30;4.77;;;19.30;61.40;;;;;;5042670;28;20481;-47
2022/10/07 04:28:25;;;;;;;10.37;4.40;;;19.30;61.60;;;;;;5043091;28;20491;-46
2022/10/07 04:30:52;;;;;;;14.23;5.77;;;19.40;61.60;;;;;;5049295;28;20483;-46
2022/10/07 04:33:23;;;;;;;5.77;4.27;;;19.40;61.50;;;;;;5041825;28;20906;-46
2022/10/07 04:35:49;;;;;;;6.10;3.40;;;19.40;61.50;;;;;;5039269;28;20542;-46
2022/10/07 04:38:17;;;;;;;11.77;4.63;;;19.40;61.70;;;;;;5045227;28;20442;-47
2022/10/07 04:40:45;;;;;;;7.80;5.17;;;19.40;61.80;;;;;;5050148;28;21017;-46
2022/10/07 04:43:19;;;;;;;9.50;3.80;;;19.30;61.90;;;;;;5046196;28;20447;-46
2022/10/07 04:45:46;;;;;;;7.27;3.90;;;19.30;62.20;;;;;;5044393;28;20443;-46
2022/10/07 04:48:12;;;;;;;6.20;4.17;;;19.30;62.30;;;;;;5037942;28;20563;-47
2022/10/07 04:50:38;;;;;;;6.00;4.33;;;19.30;62.30;;;;;;5046443;28;21061;-46
2022/10/07 04:53:06;;;;;;;7.37;4.77;;;19.30;62.10;;;;;;5046890;28;20200;-47
2022/10/07 04:55:36;;;;;;;7.60;4.03;;;19.30;62.20;;;;;;5040142;28;20443;-46
2022/10/07 04:58:02;;;;;;;6.53;4.07;;;19.30;62.30;;;;;;5040966;28;20803;-47
2022/10/07 05:00:28;;;;;;;5.13;3.67;;;19.30;62.50;;;;;;5046769;28;20565;-45
2022/10/07 05:02:54;;;;;;;9.53;5.30;;;19.30;62.40;;;;;;5038111;28;20538;-46
2022/10/07 05:05:19;;;;;;;13.23;5.50;;;19.30;62.50;;;;;;5044921;28;20196;-49
2022/10/07 05:07:53;;;;;;;9.60;5.30;;;19.30;62.60;;;;;;5039824;28;20215;-49
2022/10/07 05:10:19;;;;;;;12.13;7.00;;;19.20;62.80;;;;;;5041579;28;20232;-48
2022/10/07 05:12:45;;;;;;;7.33;5.00;;;19.20;63.00;;;;;;5027238;28;20524;-50
2022/10/07 05:15:11;;;;;;;10.33;5.73;;;19.20;63.30;;;;;;5044238;28;20947;-46
2022/10/07 05:17:39;;;;;;;9.20;5.60;;;19.30;64.00;;;;;;5041999;28;20184;-46
2022/10/07 05:20:09;;;;;;;7.50;5.77;;;19.40;63.80;;;;;;5037542;28;20459;-46
2022/10/07 05:22:35;;;;;;;8.60;4.93;;;19.40;63.20;;;;;;5043842;28;20439;-48
2022/10/07 05:25:00;;;;;;;6.63;4.67;;;19.50;63.70;;;;;;5046653;28;20439;-46
2022/10/07 05:27:26;;;;;;;10.57;4.63;;;19.50;62.30;;;;;;5046429;28;20521;-46
2022/10/07 05:29:51;;;;;;;11.07;5.33;;;19.60;62.40;;;;;;5040194;28;20932;-46
2022/10/07 05:32:17;;;;;;;6.57;4.70;;;19.70;62.30;;;;;;5047630;28;20192;-46
2022/10/07 05:34:46;;;;;;;8.07;5.63;;;19.70;62.00;;;;;;5044572;28;20683;-47
2022/10/07 05:37:11;;;;;;;8.63;5.00;;;19.70;61.90;;;;;;5041862;28;20200;-45
2022/10/07 05:39:37;;;;;;;6.53;4.27;;;19.80;61.50;;;;;;5045511;28;20965;-46
2022/10/07 05:42:03;;;;;;;7.50;4.60;;;19.80;61.20;;;;;;5049934;28;20200;-46
2022/10/07 05:44:32;;;;;;;6.53;4.70;;;19.80;61.00;;;;;;5049550;28;20192;-46
2022/10/07 05:46:58;;;;;;;9.10;4.90;;;19.80;60.80;;;;;;5048040;28;20470;-45
2022/10/07 05:49:24;;;;;;;4.93;3.90;;;19.80;61.10;;;;;;5039104;28;20506;-50
2022/10/07 05:51:50;;;;;;;11.40;5.37;;;19.80;61.10;;;;;;5029481;28;20271;-50
2022/10/07 05:54:16;;;;;;;10.30;4.53;;;19.80;61.20;;;;;;5038830;28;20200;-50
2022/10/07 05:56:42;;;;;;;6.97;5.07;;;19.80;61.20;;;;;;5045274;28;20447;-51
2022/10/07 05:59:07;;;;;;;6.83;5.17;;;19.80;61.10;;;;;;5043781;28;20540;-49
2022/10/07 06:01:33;;;;;;;7.53;4.50;;;19.80;61.30;;;;;;5040764;28;20199;-50
2022/10/07 06:03:58;;;;;;;6.00;4.43;;;19.80;61.30;;;;;;5049209;28;20288;-50
2022/10/07 06:06:25;;;;;;;6.23;4.00;;;19.90;61.50;;;;;;5046768;28;20203;-50
2022/10/07 06:08:52;;;;;;;4.97;3.97;;;19.90;61.50;;;;;;5045229;28;20223;-47
2022/10/07 06:14:04;;;;;;;9.20;4.17;;;19.70;62.00;;;;;;5048203;28;20504;-46
2022/10/07 06:16:30;;;;;;;5.93;4.20;;;19.60;61.70;;;;;;5044501;28;20450;-49
2022/10/07 06:18:56;;;;;;;8.37;4.10;;;19.60;62.60;;;;;;5045625;28;20438;-47
2022/10/07 06:21:26;;;;;;;7.27;3.87;;;19.50;62.60;;;;;;5044120;28;20630;-45
2022/10/07 06:23:53;;;;;;;10.07;5.10;;;19.50;62.80;;;;;;5043628;28;20195;-50
2022/10/07 06:26:20;;;;;;;5.13;4.00;;;19.70;62.90;;;;;;5037470;28;20522;-47
2022/10/07 06:28:46;;;;;;;7.00;4.30;;;19.70;62.20;;;;;;5040806;28;21045;-48
2022/10/07 06:31:14;;;;;;;6.40;4.40;;;19.60;62.50;;;;;;5040803;28;20550;-49
2022/10/07 06:33:40;;;;;;;9.57;4.47;;;19.60;63.00;;;;;;5045609;28;21045;-49
2022/10/07 06:36:10;;;;;;;4.43;4.03;;;19.50;63.00;;;;;;5047631;28;20471;-49
2022/10/07 06:38:36;;;;;;;4.77;4.27;;;19.60;63.10;;;;;;5042669;28;20448;-45
2022/10/07 06:41:04;;;;;;;4.70;4.07;;;19.40;63.20;;;;;;5041551;28;20430;-47
2022/10/07 06:43:31;;;;;;;10.60;4.67;;;19.30;64.00;;;;;;5041510;28;20200;-46
2022/10/07 06:46:02;;;;;;;5.43;3.90;;;19.10;64.90;;;;;;5037587;28;20512;-49
2022/10/07 06:48:29;;;;;;;13.03;4.67;;;19.00;65.90;;;;;;5044524;28;20458;-47
2022/10/07 06:51:01;;;;;;;4.30;3.90;;;19.00;65.40;;;;;;5047497;28;20494;-50
2022/10/07 06:53:27;;;;;;;8.97;5.73;;;19.10;64.90;;;;;;5043959;28;20447;-48
2022/10/07 06:55:56;;;;;;;7.00;4.27;;;19.30;64.70;;;;;;5046608;28;20453;-45
2022/10/07 06:58:26;;;;;;;10.93;4.60;;;19.50;64.00;;;;;;5043752;28;20577;-45
2022/10/07 07:00:56;;;;;;;10.27;4.03;;;19.70;63.40;;;;;;5044743;28;20439;-46
2022/10/07 07:03:22;;;;;;;4.80;3.53;;;19.90;62.70;;;;;;5040819;28;20450;-45
2022/10/07 07:05:50;;;;;;;8.70;4.63;;;19.90;62.40;;;;;;5045985;28;20442;-46
2022/10/07 07:08:17;;;;;;;9.27;4.03;;;20.00;61.80;;;;;;5033350;28;20452;-48
2022/10/07 07:10:44;;;;;;;5.90;3.70;;;20.00;61.80;;;;;;5042269;28;20521;-48
2022/10/07 07:13:11;;;;;;;10.93;4.00;;;20.10;61.40;;;;;;5047091;28;20439;-48
2022/10/07 07:15:37;;;;;;;6.27;4.47;;;20.20;61.10;;;;;;5045982;28;20506;-46
2022/10/07 07:18:06;;;;;;;7.17;4.37;;;20.30;60.70;;;;;;5043915;28;20435;-47
2022/10/07 07:20:36;;;;;;;4.40;3.83;;;20.30;60.60;;;;;;5045103;28;20447;-46
2022/10/07 07:23:03;;;;;;;4.50;3.27;;;20.40;60.70;;;;;;5044690;28;20539;-45
2022/10/07 07:25:30;;;;;;;8.60;4.00;;;20.50;60.60;;;;;;5047795;28;20496;-44
2022/10/07 07:28:00;;;;;;;5.80;4.00;;;20.40;60.70;;;;;;5041485;28;20442;-46
2022/10/07 07:30:29;;;;;;;6.20;4.27;;;20.40;60.80;;;;;;5051028;28;20487;-45
2022/10/07 07:32:56;;;;;;;7.90;4.10;;;20.60;60.50;;;;;;5037992;28;20428;-45
2022/10/07 07:35:23;;;;;;;4.47;3.90;;;20.80;60.40;;;;;;5044721;28;20444;-45
2022/10/07 07:37:49;;;;;;;9.87;4.07;;;20.90;59.40;;;;;;5046823;28;20780;-45
2022/10/07 07:40:15;;;;;;;6.20;3.70;;;20.90;59.00;;;;;;5051955;28;20442;-45
2022/10/07 07:42:41;;;;;;;11.27;4.30;;;21.20;58.40;;;;;;5051964;28;20518;-46
2022/10/07 07:45:07;;;;;;;8.57;3.97;;;21.40;58.00;;;;;;5052771;28;20570;-47
2022/10/07 07:47:34;;;;;;;6.83;3.40;;;21.50;57.80;;;;;;5049151;28;20204;-45
2022/10/07 07:50:00;;;;;;;4.73;3.70;;;21.60;57.60;;;;;;5042127;28;20274;-45
2022/10/07 07:52:26;;;;;;;6.63;4.20;;;21.80;57.40;;;;;;5045849;28;20489;-45
2022/10/07 07:54:56;;;;;;;6.33;3.60;;;21.90;56.60;;;;;;5048725;28;20466;-46
2022/10/07 07:57:22;;;;;;;7.77;3.63;;;21.80;56.50;;;;;;5038871;28;20200;-47
2022/10/07 07:59:47;;;;;;;9.90;3.40;;;21.70;56.70;;;;;;5052777;28;20494;-47
2022/10/07 08:02:13;;;;;;;4.47;3.47;;;21.90;56.10;;;;;;5052118;28;20667;-45
2022/10/07 08:04:39;;;;;;;6.13;3.20;;;22.00;55.60;;;;;;5034278;28;20224;-45
2022/10/07 08:07:04;;;;;;;10.53;4.83;;;22.10;55.60;;;;;;5049132;28;20458;-46
2022/10/07 08:09:30;;;;;;;4.83;3.27;;;22.20;55.40;;;;;;5045188;28;20224;-46
2022/10/07 08:11:56;;;;;;;4.10;3.50;;;22.30;55.20;;;;;;5049977;28;20207;-46
2022/10/07 08:14:22;;;;;;;5.20;3.67;;;22.30;55.00;;;;;;5051104;28;20217;-46
2022/10/07 08:16:48;;;;;;;7.00;3.97;;;22.30;54.90;;;;;;5046367;28;20200;-46
2022/10/07 08:19:14;;;;;;;5.73;4.10;;;22.40;54.70;;;;;;5039656;28;20470;-48
2022/10/07 08:21:40;;;;;;;5.50;3.50;;;22.50;54.50;;;;;;5049962;28;20923;-47
2022/10/07 08:24:08;;;;;;;7.33;3.40;;;22.50;55.00;;;;;;5041137;28;20243;-45
2022/10/07 08:26:34;;;;;;;6.20;4.20;;;22.60;54.60;;;;;;5049031;28;20500;-45
2022/10/07 08:29:01;;;;;;;4.53;3.43;;;22.70;54.10;;;;;;5050291;28;20941;-50
2022/10/07 08:31:28;;;;;;;4.90;2.80;;;22.90;53.90;;;;;;5053533;28;20217;-46
2022/10/07 08:33:56;;;;;;;4.30;3.77;;;22.90;53.50;;;;;;5041851;28;20809;-49
2022/10/07 08:36:24;;;;;;;5.23;3.97;;;23.10;53.30;;;;;;5044497;28;20802;-46
2022/10/07 08:38:49;;;;;;;3.23;2.70;;;23.00;52.90;;;;;;5048721;28;20475;-46
2022/10/07 08:41:15;;;;;;;8.30;3.67;;;22.90;53.30;;;;;;5038713;28;20877;-45
2022/10/07 08:43:46;;;;;;;5.23;3.00;;;23.00;53.30;;;;;;5048647;28;20188;-47
2022/10/07 08:46:16;;;;;;;3.33;3.03;;;23.20;53.20;;;;;;5050611;28;20201;-47
2022/10/07 08:48:51;;;;;;;5.07;3.10;;;23.30;53.20;;;;;;5040827;28;20451;-45
2022/10/07 08:51:19;;;;;;;4.40;2.43;;;23.30;53.00;;;;;;5043176;28;20539;-49
2022/10/07 08:53:49;;;;;;;4.90;2.87;;;23.40;51.80;;;;;;5042878;28;20451;-51
2022/10/07 08:56:22;;;;;;;5.97;2.70;;;23.40;51.40;;;;;;5044195;28;20542;-51
2022/10/07 08:59:21;;;;;;;3.10;2.57;;;23.40;51.70;;;;;;5048618;28;20455;-51
2022/10/07 09:02:10;;;;;;;5.63;2.70;;;23.60;51.80;;;;;;5048901;28;20495;-48
2022/10/07 09:04:52;;;;;;;4.13;2.87;;;23.70;51.50;;;;;;5025825;28;21131;-49
2022/10/07 09:07:30;;;;;;;4.20;3.00;;;23.70;50.80;;;;;;5041316;28;20502;-50
2022/10/07 09:10:04;;;;;;;3.50;2.90;;;23.80;51.10;;;;;;5045574;28;20521;-49
2022/10/07 09:12:40;;;;;;;4.93;3.10;;;23.90;50.70;;;;;;5048576;28;20438;-50
2022/10/07 09:15:17;;;;;;;6.27;2.70;;;24.00;50.50;;;;;;5046304;28;20884;-50
2022/10/07 09:17:53;;;;;;;6.93;2.70;;;24.10;50.20;;;;;;5047312;28;20500;-50
2022/10/07 09:20:24;;;;;;;2.60;2.40;;;24.10;50.10;;;;;;5048168;28;20489;-46
2022/10/07 09:22:56;;;;;;;3.57;2.73;;;24.20;50.30;;;;;;5046858;28;20465;-48
2022/10/07 09:25:24;;;;;;;5.60;2.83;;;24.30;49.80;;;;;;5038182;28;20447;-51
2022/10/07 09:27:51;;;;;;;3.50;2.60;;;24.20;49.80;;;;;;5042211;28;20617;-46
2022/10/07 09:30:18;;;;;;;4.83;3.13;;;24.10;50.30;;;;;;5056823;28;20497;-50
2022/10/07 09:32:46;;;;;;;5.13;3.10;;;24.30;50.50;;;;;;5050191;28;20435;-49
2022/10/07 09:35:18;;;;;;;3.37;2.90;;;24.30;50.10;;;;;;5043752;28;20512;-47
2022/10/07 09:37:57;;;;;;;4.97;2.73;;;24.40;49.80;;;;;;5043585;28;20534;-48
2022/10/07 09:41:14;;;;;;;3.43;3.13;;;24.60;50.00;;;;;;5044431;28;20961;-49
2022/10/07 09:43:26;;;;;;;3.97;3.17;;;24.70;50.00;;;;;;5049209;28;20806;-47
2022/10/07 09:45:52;;;;;;;4.90;2.80;;;24.90;49.30;;;;;;5044600;28;20482;-51
2022/10/07 09:48:33;;;;;;;3.40;3.10;;;25.00;49.30;;;;;;5046320;28;20483;-51
2022/10/07 09:51:16;;;;;;;4.40;3.00;;;25.10;49.10;;;;;;5036705;28;20526;-50
2022/10/07 09:54:01;;;;;;;5.60;3.40;;;25.20;48.80;;;;;;5046179;28;20965;-50
2022/10/07 09:56:46;;;;;;;5.33;2.90;;;25.20;48.60;;;;;;5044863;28;20454;-51
2022/10/07 09:59:27;;;;;;;3.30;2.90;;;25.40;48.60;;;;;;5048156;28;20882;-51
2022/10/07 10:02:18;;;;;;;7.47;3.83;;;25.40;48.40;;;;;;5048638;28;20954;-49
2022/10/07 10:04:56;;;;;;;10.20;4.00;;;25.30;48.60;;;;;;5045173;28;20934;-50
2022/10/07 10:07:51;;;;;;;3.30;2.73;;;25.50;48.50;;;;;;5044978;28;20446;-47
2022/10/07 10:10:22;;;;;;;5.40;3.50;;;25.60;48.10;;;;;;5044439;28;20490;-50
2022/10/07 10:12:51;;;;;;;4.63;3.60;;;25.80;48.30;;;;;;5044006;28;20446;-46
2022/10/07 10:15:24;;;;;;;7.40;3.90;;;25.90;48.30;;;;;;5046627;28;20512;-49
2022/10/07 10:17:50;;;;;;;4.90;3.37;;;25.90;47.80;;;;;;5046408;28;20450;-51
2022/10/07 10:20:38;;;;;;;4.30;3.50;;;26.10;48.20;;;;;;5046056;28;20533;-50
2022/10/07 10:23:31;;;;;;;6.23;4.40;;;26.20;47.50;;;;;;5046256;28;20490;-50
2022/10/07 10:26:24;;;;;;;5.33;4.13;;;26.30;47.70;;;;;;5042598;28;20462;-47
2022/10/07 10:28:58;;;;;;;4.20;3.80;;;26.30;47.20;;;;;;5041349;28;20850;-46
2022/10/07 10:31:31;;;;;;;5.83;3.90;;;26.50;47.40;;;;;;5044894;28;20487;-46
2022/10/07 10:34:26;;;;;;;5.47;4.10;;;26.60;47.60;;;;;;5047378;28;20534;-46
2022/10/07 10:37:12;;;;;;;6.00;5.03;;;26.80;47.10;;;;;;5045869;28;20439;-46
2022/10/07 10:40:12;;;;;;;6.20;5.60;;;26.90;46.10;;;;;;5044139;28;20462;-45
2022/10/07 10:42:49;;;;;;;10.20;5.20;;;26.90;46.00;;;;;;5047448;28;20463;-46
2022/10/07 10:45:33;;;;;;;6.50;5.87;;;26.80;46.50;;;;;;5046825;28;20450;-49
2022/10/07 10:48:11;;;;;;;4.60;3.30;;;26.70;46.10;;;;;;5048167;28;20441;-46
2022/10/07 10:51:26;;;;;;;5.90;5.40;;;26.80;46.80;;;;;;5043827;28;20490;-47
2022/10/07 10:54:16;;;;;;;5.67;4.97;;;27.00;45.50;;;;;;5024212;28;20459;-47
2022/10/07 10:57:04;;;;;;;7.07;5.10;;;26.80;46.40;;;;;;5043400;28;20471;-47
2022/10/07 10:59:47;;;;;;;8.70;5.40;;;26.80;46.00;;;;;;5051420;28;20454;-46
2022/10/07 11:02:35;;;;;;;9.73;6.63;;;26.70;46.60;;;;;;5045636;28;20454;-46
2022/10/07 11:05:16;;;;;;;5.70;5.10;;;26.90;46.20;;;;;;5042981;28;20474;-49
2022/10/07 11:08:10;;;;;;;6.00;5.50;;;26.90;45.80;;;;;;5050075;28;20450;-47
2022/10/07 11:10:43;;;;;;;5.80;5.30;;;26.80;46.10;;;;;;5051830;28;20518;-46
2022/10/07 11:13:27;;;;;;;8.40;6.40;;;26.90;45.90;;;;;;5050962;28;20447;-47
2022/10/07 11:16:00;;;;;;;5.93;5.43;;;27.10;45.30;;;;;;5052228;28;20569;-47
2022/10/07 11:18:36;;;;;;;6.93;6.23;;;27.10;46.30;;;;;;5033371;28;20933;-47
2022/10/07 11:21:07;;;;;;;7.57;6.33;;;27.10;46.40;;;;;;5040747;28;20443;-47
2022/10/07 11:24:00;;;;;;;6.00;5.40;;;27.00;46.10;;;;;;5052699;28;20475;-50
2022/10/07 11:26:40;;;;;;;6.70;6.00;;;27.20;46.20;;;;;;5050489;28;20792;-48
2022/10/07 11:29:21;;;;;;;9.47;7.47;;;27.30;46.20;;;;;;5044317;28;20485;-49
2022/10/07 11:31:56;;;;;;;8.07;6.60;;;27.40;45.80;;;;;;5063840;28;20461;-50
2022/10/07 11:34:34;;;;;;;8.67;6.20;;;27.40;45.10;;;;;;5039108;28;20439;-49
2022/10/07 11:37:07;;;;;;;6.50;5.67;;;27.50;45.00;;;;;;5046368;28;20486;-50
2022/10/07 11:39:37;;;;;;;7.03;6.43;;;27.50;45.20;;;;;;5047831;28;20582;-48
2022/10/07 11:42:16;;;;;;;7.27;5.90;;;27.50;45.40;;;;;;5048153;28;20525;-49
2022/10/07 11:44:59;;;;;;;6.90;5.57;;;27.50;45.10;;;;;;5052458;28;20880;-48
2022/10/07 11:47:30;;;;;;;7.23;6.53;;;27.50;45.20;;;;;;5047014;28;20451;-50
2022/10/07 11:50:08;;;;;;;7.30;6.50;;;27.30;45.70;;;;;;5050605;28;20482;-47
2022/10/07 11:52:39;;;;;;;7.50;6.80;;;27.50;45.60;;;;;;5049459;28;20504;-47
2022/10/07 11:55:25;;;;;;;6.67;6.07;;;27.50;45.20;;;;;;5048188;28;20514;-50
2022/10/07 11:57:57;;;;;;;6.93;6.20;;;27.80;45.10;;;;;;5044212;28;20475;-51
2022/10/07 12:00:27;;;;;;;6.77;6.10;;;27.90;45.00;;;;;;5050428;28;20496;-52
2022/10/07 12:02:55;;;;;;;6.13;5.63;;;27.70;44.80;;;;;;5035897;28;20490;-48
2022/10/07 12:05:32;;;;;;;7.57;6.80;;;27.70;45.40;;;;;;5043920;28;20946;-52
2022/10/07 12:07:59;;;;;;;7.40;6.70;;;27.80;44.80;;;;;;5045798;28;20453;-51
2022/10/07 12:10:28;;;;;;;7.20;6.50;;;27.80;44.20;;;;;;5046486;28;20966;-49
2022/10/07 12:13:08;;;;;;;8.30;6.00;;;27.80;44.40;;;;;;5044219;28;20485;-51
2022/10/07 12:15:43;;;;;;;6.50;6.00;;;27.90;44.50;;;;;;5045294;28;20443;-50
2022/10/07 12:18:09;;;;;;;7.20;6.50;;;27.80;44.50;;;;;;5046409;28;20431;-49
2022/10/07 12:20:50;;;;;;;12.40;6.57;;;27.80;45.00;;;;;;5047579;28;20450;-48
2022/10/07 12:23:21;;;;;;;6.10;5.50;;;27.80;44.50;;;;;;5043842;28;20205;-49
2022/10/07 12:25:54;;;;;;;6.60;6.00;;;27.80;45.00;;;;;;5035661;28;20455;-49
2022/10/07 12:28:34;;;;;;;6.70;6.00;;;27.90;44.50;;;;;;5048636;28;20963;-53
2022/10/07 12:31:22;;;;;;;6.50;5.90;;;28.00;44.70;;;;;;5052668;28;20895;-52
2022/10/07 12:34:09;;;;;;;6.00;5.40;;;28.10;44.50;;;;;;5031399;28;20454;-49
2022/10/07 12:36:39;;;;;;;9.67;6.70;;;28.00;44.50;;;;;;5045097;28;20443;-48
2022/10/07 12:39:11;;;;;;;7.63;6.43;;;27.80;44.50;;;;;;5032474;28;20479;-52
2022/10/07 12:41:41;;;;;;;6.93;6.07;;;27.80;44.90;;;;;;5045060;28;20447;-48
2022/10/07 12:44:07;;;;;;;7.27;6.40;;;27.80;45.10;;;;;;5045525;28;20478;-46
2022/10/07 12:47:05;;;;;;;6.50;5.87;;;27.80;44.90;;;;;;5043905;28;20508;-49
2022/10/07 12:49:35;;;;;;;9.23;5.63;;;27.60;44.80;;;;;;5035999;28;20231;-49
2022/10/07 12:52:22;;;;;;;10.83;5.60;;;27.60;45.10;;;;;;5033299;28;20444;-46
2022/10/07 12:54:55;;;;;;;6.47;5.87;;;27.60;44.90;;;;;;5045998;28;20545;-50
2022/10/07 12:57:24;;;;;;;6.73;6.10;;;27.60;45.20;;;;;;5040792;28;20451;-47
2022/10/07 13:00:02;;;;;;;9.90;5.17;;;27.60;44.70;;;;;;5041999;28;20436;-46
2022/10/07 13:03:08;;;;;;;7.17;5.20;;;27.60;45.00;;;;;;5038520;28;20427;-50
2022/10/07 13:06:06;;;;;;;6.40;5.37;;;27.80;45.30;;;;;;5049135;28;20543;-46
2022/10/07 13:08:49;;;;;;;5.90;5.30;;;27.40;45.20;;;;;;5047640;28;20580;-50
2022/10/07 13:11:43;;;;;;;7.00;5.80;;;27.40;45.50;;;;;;5026332;28;20625;-47